Time;durP1;ratioP1;P1;durP2;ratioP2;P2;SDS_P1;SDS_P2;PMS_P1;PMS_P2;Temp;Humidity;BMP_temperature;BMP_pressure;BME280_temperature;BME280_humidity;BME280_pressure;Samples;Min_cycle;Max_cycle;Signal;HPM_P1;HPM_P2
2021/08/23 00:02:58;;;;;;;10.80;9.00;;;;;;;21.04;95.20;100145.67;2798639;84;21094;-68
2021/08/23 00:07:00;;;;;;;10.98;8.43;;;;;;;21.06;94.85;100120.08;2798524;85;21071;-67
2021/08/23 00:11:02;;;;;;;8.83;7.97;;;;;;;21.06;94.49;100112.51;2798411;85;21050;-68
2021/08/23 00:15:07;;;;;;;9.65;8.68;;;;;;;21.06;94.71;100109.80;2798230;83;21027;-69
2021/08/23 00:19:09;;;;;;;9.15;7.75;;;;;;;21.12;94.52;100110.34;2798324;85;21075;-68
2021/08/23 00:23:16;;;;;;;11.48;8.28;;;;;;;21.12;94.34;100108.46;2798476;84;21026;-68
2021/08/23 00:27:16;;;;;;;;;;;;;;;21.16;94.31;100092.67;2801094;83;21058;-68
2021/08/23 00:31:18;;;;;;;12.37;8.88;;;;;;;21.16;94.49;100107.55;2848717;83;20096;-68
2021/08/23 00:35:20;;;;;;;11.22;8.33;;;;;;;21.12;94.90;100110.34;2869546;83;21015;-68
2021/08/23 00:39:22;;;;;;;11.63;8.98;;;;;;;21.04;94.96;100109.98;2869344;83;21043;-68
2021/08/23 00:43:23;;;;;;;14.10;10.53;;;;;;;20.94;95.43;100114.41;2869719;83;21020;-68
2021/08/23 00:47:25;;;;;;;12.88;10.45;;;;;;;20.93;95.95;100111.38;2869466;83;21039;-68
2021/08/23 00:51:27;;;;;;;11.45;9.70;;;;;;;20.93;96.17;100110.03;2869840;83;21035;-69
2021/08/23 00:55:32;;;;;;;11.65;8.95;;;;;;;20.90;96.02;100107.73;2870156;83;20996;-71
2021/08/23 00:59:37;;;;;;;12.10;9.43;;;;;;;20.78;96.16;100110.63;2869657;82;21016;-70
2021/08/23 01:03:53;;;;;;;10.53;9.35;;;;;;;20.71;97.16;100106.52;2869333;83;21329;-70
2021/08/23 01:08:30;;;;;;;;;;;;;;;20.75;97.43;100106.97;2830643;83;21650;-70
2021/08/23 01:12:31;;;;;;;14.63;9.65;;;;;;;20.89;97.57;100093.05;2699167;87;20117;-70
2021/08/23 01:16:33;;;;;;;9.83;8.50;;;;;;;20.89;96.13;100091.19;2850366;82;21526;-71
2021/08/23 01:20:39;;;;;;;11.50;9.30;;;;;;;20.89;96.27;100095.25;2870302;82;21062;-70
2021/08/23 01:24:44;;;;;;;11.90;8.83;;;;;;;20.88;96.02;100096.28;2866006;83;21048;-70
2021/08/23 01:29:12;;;;;;;12.43;9.88;;;;;;;20.84;95.98;100082.85;2849517;82;21063;-70
2021/08/23 01:33:14;;;;;;;10.60;9.40;;;;;;;20.88;96.53;100088.17;2874862;82;21053;-71
2021/08/23 01:37:17;;;;;;;12.18;9.03;;;;;;;21.00;96.72;100087.59;2875044;82;21231;-70
2021/08/23 01:41:19;;;;;;;9.73;8.05;;;;;;;21.02;95.15;100082.82;2875264;82;20974;-70
2021/08/23 01:45:21;;;;;;;11.28;8.53;;;;;;;20.98;95.01;100098.09;2874436;82;21061;-70
2021/08/23 01:49:23;;;;;;;11.88;9.95;;;;;;;20.96;95.84;100104.75;2874526;83;21017;-70
2021/08/23 01:53:25;;;;;;;12.95;10.40;;;;;;;20.97;95.69;100106.42;2874420;82;21017;-70
2021/08/23 01:57:27;;;;;;;14.23;10.20;;;;;;;20.91;95.88;100108.55;2874430;83;21001;-70
2021/08/23 02:01:30;;;;;;;14.95;11.63;;;;;;;20.84;96.35;100092.31;2874241;83;21025;-70
2021/08/23 02:05:32;;;;;;;14.05;10.90;;;;;;;20.86;97.03;100079.94;2874282;82;21069;-70
2021/08/23 02:09:34;;;;;;;11.48;10.15;;;;;;;20.87;97.15;100072.14;2874462;83;21025;-70
2021/08/23 02:13:35;;;;;;;12.82;11.08;;;;;;;20.75;97.25;100069.12;2874251;83;20993;-70
2021/08/23 02:17:37;;;;;;;9.25;8.35;;;;;;;20.68;98.07;100079.39;2873849;83;20979;-70
2021/08/23 02:21:49;;;;;;;7.87;4.92;;;;;;;20.63;98.09;100085.06;2873411;83;21027;-70
2021/08/23 02:25:52;;;;;;;6.05;3.80;;;;;;;20.54;97.24;100083.88;2871914;82;21036;-70
2021/08/23 02:29:53;;;;;;;3.50;3.20;;;;;;;20.35;96.86;100082.67;2871549;82;21012;-70
2021/08/23 02:33:55;;;;;;;2.33;1.98;;;;;;;20.12;97.52;100081.03;2870182;83;21039;-70
2021/08/23 02:37:57;;;;;;;3.12;2.30;;;;;;;19.90;98.51;100069.89;2870203;82;21534;-69
2021/08/23 02:41:59;;;;;;;5.50;2.83;;;;;;;19.71;99.06;100056.00;2869782;83;21054;-70
2021/08/23 02:46:01;;;;;;;4.42;2.45;;;;;;;19.59;99.75;100048.92;2870147;83;21004;-70
2021/08/23 02:50:06;;;;;;;6.12;2.77;;;;;;;19.60;100.00;100064.09;2869937;83;21045;-71
2021/08/23 02:54:08;;;;;;;3.55;2.98;;;;;;;19.61;100.00;100066.25;2869365;82;20968;-71
2021/08/23 02:58:10;;;;;;;4.08;3.33;;;;;;;19.60;99.95;100060.53;2869947;83;21031;-72
2021/08/23 03:02:12;;;;;;;5.33;3.10;;;;;;;19.61;100.00;100067.60;2870198;83;21083;-72
2021/08/23 03:06:13;;;;;;;3.33;2.72;;;;;;;19.60;100.00;100073.53;2865669;82;20997;-71
2021/08/23 03:10:15;;;;;;;3.83;2.27;;;;;;;19.61;100.00;100079.74;2848875;83;21001;-72
2021/08/23 03:14:17;;;;;;;2.87;2.65;;;;;;;19.60;100.00;100084.32;2848888;83;21067;-72
2021/08/23 03:18:19;;;;;;;2.98;2.33;;;;;;;19.50;100.00;100079.23;2851119;83;21004;-70
2021/08/23 03:22:20;;;;;;;3.47;2.95;;;;;;;19.40;100.00;100086.27;2844841;80;21142;-70
2021/08/23 03:38:52;;;;;;;4.87;4.33;;;;;;;19.22;100.00;100079.91;2871574;79;72686;-69
2021/08/23 03:42:54;;;;;;;3.50;3.20;;;;;;;19.24;100.00;100079.73;2825127;84;21052;-69
2021/08/23 03:46:56;;;;;;;6.12;4.30;;;;;;;19.23;100.00;100081.58;2841387;83;21015;-70
2021/08/23 03:50:58;;;;;;;5.25;4.62;;;;;;;19.23;100.00;100096.41;2824877;83;21016;-70
2021/08/23 04:03:50;;;;;;;3.77;3.37;;;;;;;19.05;100.00;100091.41;2869164;82;21406;-58
2021/08/23 04:07:53;;;;;;;7.25;4.22;;;;;;;19.06;100.00;100091.73;2865333;81;21048;-59
2021/08/23 04:11:57;;;;;;;4.25;3.70;;;;;;;19.09;100.00;100087.32;2866106;82;20964;-59
2021/08/23 04:16:00;;;;;;;6.10;4.25;;;;;;;19.16;100.00;100094.16;2865515;82;20988;-61
2021/08/23 04:20:14;;;;;;;5.90;4.00;;;;;;;19.18;100.00;100092.63;2850525;81;21156;-58
2021/08/23 04:24:16;;;;;;;6.95;5.40;;;;;;;19.18;100.00;100102.88;2802139;83;20963;-59
2021/08/23 04:28:48;;;;;;;6.05;5.45;;;;;;;19.16;100.00;100100.89;2798035;84;21007;-61
2021/08/23 04:32:52;;;;;;;6.87;5.60;;;;;;;19.16;100.00;100103.59;2797616;84;20996;-58
2021/08/23 04:37:15;;;;;;;7.53;5.90;;;;;;;19.11;100.00;100118.14;2793283;85;20991;-59
2021/08/23 04:41:19;;;;;;;13.05;7.78;;;;;;;19.07;100.00;100102.84;2797933;83;21046;-60
2021/08/23 04:45:22;;;;;;;9.03;7.22;;;;;;;19.03;100.00;100112.83;2810193;83;21098;-59
2021/08/23 04:49:25;;;;;;;8.40;7.70;;;;;;;19.05;100.00;100124.26;2808515;83;21011;-59
2021/08/23 04:53:28;;;;;;;9.60;7.97;;;;;;;19.02;100.00;100127.33;2817841;84;21015;-58
2021/08/23 04:57:30;;;;;;;8.50;7.20;;;;;;;19.02;100.00;100117.40;2799467;85;20984;-59
2021/08/23 05:01:51;;;;;;;10.85;7.15;;;;;;;19.03;100.00;100125.81;2799532;84;21015;-61
2021/08/23 05:05:53;;;;;;;9.73;8.63;;;;;;;18.98;100.00;100120.97;2797963;85;21043;-58
2021/08/23 05:09:55;;;;;;;11.63;10.53;;;;;;;18.91;100.00;100128.59;2798429;84;21028;-60
2021/08/23 05:13:57;;;;;;;10.00;9.03;;;;;;;18.92;100.00;100125.73;2798126;84;21007;-58
2021/08/23 05:18:00;;;;;;;9.95;8.65;;;;;;;18.95;100.00;100139.33;2798216;84;21012;-58
2021/08/23 05:22:02;;;;;;;9.63;8.63;;;;;;;18.97;100.00;100131.92;2798169;84;21033;-58
2021/08/23 05:26:10;;;;;;;10.28;9.05;;;;;;;18.96;100.00;100130.22;2798050;84;21027;-57
2021/08/23 05:30:13;;;;;;;11.18;9.73;;;;;;;18.95;100.00;100127.20;2798449;84;21023;-60
2021/08/23 05:34:18;;;;;;;12.80;8.83;;;;;;;18.97;100.00;100124.66;2797897;84;21197;-59
2021/08/23 05:38:21;;;;;;;12.53;8.90;;;;;;;19.01;100.00;100128.35;2797644;84;20984;-60
2021/08/23 05:42:26;;;;;;;12.55;9.48;;;;;;;19.04;100.00;100121.23;2798368;85;20979;-58
2021/08/23 05:46:28;;;;;;;10.00;8.95;;;;;;;19.06;100.00;100123.23;2798481;84;20994;-58
2021/08/23 05:50:31;;;;;;;11.30;9.40;;;;;;;19.13;100.00;100128.23;2798386;84;20996;-60
2021/08/23 05:54:34;;;;;;;11.73;9.30;;;;;;;19.25;100.00;100125.37;2797845;85;21050;-58
2021/08/23 05:58:37;;;;;;;12.00;8.65;;;;;;;19.33;100.00;100131.70;2797826;84;21027;-58
2021/08/23 06:02:40;;;;;;;8.48;7.47;;;;;;;19.42;100.00;100134.61;2798511;85;20992;-58
2021/08/23 06:06:41;;;;;;;9.93;6.97;;;;;;;19.49;100.00;100146.84;2799786;83;21039;-58
2021/08/23 06:10:47;;;;;;;7.30;6.58;;;;;;;19.54;100.00;100145.75;2799463;85;20980;-58
2021/08/23 06:14:50;;;;;;;7.75;4.85;;;;;;;19.64;100.00;100151.70;2799621;85;21051;-61
2021/08/23 06:18:54;;;;;;;4.50;3.95;;;;;;;19.70;99.09;100145.55;2799716;83;21043;-57
2021/08/23 06:22:55;;;;;;;5.47;4.62;;;;;;;19.68;98.47;100138.68;2799559;84;20983;-60
2021/08/23 06:26:57;;;;;;;7.40;6.03;;;;;;;19.72;98.89;100134.57;2799303;83;21249;-60
2021/08/23 06:31:12;;;;;;;6.00;5.50;;;;;;;19.77;98.41;100131.31;2799597;83;21011;-58
2021/08/23 06:35:14;;;;;;;5.72;5.12;;;;;;;19.83;98.52;100134.05;2799643;85;21500;-60
2021/08/23 06:39:16;;;;;;;8.60;4.97;;;;;;;19.90;97.92;100130.62;2799402;84;20992;-60
2021/08/23 06:43:20;;;;;;;4.90;4.47;;;;;;;19.89;97.56;100131.64;2799258;84;21000;-59
2021/08/23 06:47:23;;;;;;;4.17;3.40;;;;;;;19.78;97.24;100135.15;2799594;83;21023;-58
2021/08/23 06:51:26;;;;;;;4.95;3.37;;;;;;;19.71;96.43;100145.05;2799934;84;21028;-59
2021/08/23 06:55:33;;;;;;;6.42;4.53;;;;;;;19.73;96.88;100144.34;2799767;85;20992;-58
2021/08/23 06:59:35;;;;;;;6.17;4.37;;;;;;;19.75;96.93;100142.28;2799800;83;20988;-60
2021/08/23 07:03:52;;;;;;;6.72;4.08;;;;;;;19.72;96.93;100152.11;2806506;83;20992;-60
2021/08/23 07:07:53;;;;;;;3.70;3.27;;;;;;;19.76;96.64;100152.05;2800056;84;21074;-61
2021/08/23 07:12:39;;;;;;;3.92;2.25;;;;;;;19.75;96.45;100154.42;2799117;83;21027;-58
2021/08/23 07:16:41;;;;;;;2.22;2.02;;;;;;;19.80;97.01;100160.61;2799777;84;21012;-59
2021/08/23 07:20:43;;;;;;;1.50;1.07;;;;;;;19.89;95.90;100165.39;2799612;83;21068;-58
2021/08/23 07:24:51;;;;;;;1.55;1.10;;;;;;;20.04;96.06;100162.66;2798862;83;20960;-59
2021/08/23 07:28:53;;;;;;;1.80;1.62;;;;;;;20.31;95.34;100165.13;2799560;84;21034;-59
2021/08/23 07:33:06;;;;;;;1.62;1.05;;;;;;;20.55;93.56;100167.09;2799549;83;20972;-61
2021/08/23 07:37:10;;;;;;;1.10;1.02;;;;;;;20.60;92.69;100166.52;2799254;83;21036;-58
2021/08/23 07:41:15;;;;;;;1.82;1.30;;;;;;;20.53;92.33;100167.28;2799560;83;21019;-62
2021/08/23 07:45:18;;;;;;;1.30;0.95;;;;;;;20.51;91.19;100173.92;2799774;85;20981;-59
2021/08/23 07:49:25;;;;;;;1.27;1.17;;;;;;;20.44;91.27;100164.41;2799276;83;21070;-57
2021/08/23 07:53:27;;;;;;;2.45;2.02;;;;;;;20.42;91.45;100162.42;2799564;84;20961;-58
2021/08/23 07:57:29;;;;;;;2.47;1.77;;;;;;;20.40;92.21;100168.00;2799311;83;20981;-59
2021/08/23 08:01:31;;;;;;;7.70;1.92;;;;;;;20.53;92.73;100170.52;2799503;85;20972;-58
2021/08/23 08:05:43;;;;;;;2.30;1.55;;;;;;;20.73;90.80;100173.89;2813466;82;21306;-62
2021/08/23 08:09:45;;;;;;;1.95;1.65;;;;;;;20.84;89.43;100170.70;2840711;84;20980;-58
2021/08/23 08:13:48;;;;;;;3.02;2.55;;;;;;;20.90;89.95;100173.96;2840959;83;20999;-59
2021/08/23 08:17:49;;;;;;;2.83;2.52;;;;;;;20.86;88.70;100167.28;2840785;83;20975;-57
2021/08/23 08:21:52;;;;;;;2.55;1.90;;;;;;;20.80;89.63;100166.20;2840405;83;20972;-58
2021/08/23 08:25:54;;;;;;;2.27;2.08;;;;;;;20.78;88.70;100164.67;2840583;83;21031;-60
2021/08/23 08:30:09;;;;;;;2.98;2.37;;;;;;;20.71;88.27;100174.61;2840512;84;21032;-58
2021/08/23 08:34:12;;;;;;;3.17;2.35;;;;;;;20.71;89.42;100171.91;2840755;83;21052;-63
2021/08/23 08:38:15;;;;;;;3.47;2.35;;;;;;;20.87;88.96;100173.01;2840732;83;20980;-58
2021/08/23 08:42:19;;;;;;;2.95;2.00;;;;;;;21.03;88.10;100175.06;2840674;83;20956;-58
2021/08/23 08:46:28;;;;;;;3.47;3.15;;;;;;;21.28;87.45;100182.73;2840433;83;21019;-57
2021/08/23 08:50:30;;;;;;;4.65;3.15;;;;;;;21.41;86.40;100185.49;2840632;84;21036;-58
2021/08/23 08:55:15;;;;;;;2.62;2.42;;;;;;;21.49;85.31;100184.50;2840888;84;20983;-58
2021/08/23 08:59:17;;;;;;;3.77;2.60;;;;;;;21.48;84.47;100188.23;2840451;83;21093;-58
2021/08/23 09:03:46;;;;;;;4.37;2.75;;;;;;;21.56;84.98;100194.86;2840952;83;20984;-58
2021/08/23 09:07:51;;;;;;;3.30;3.00;;;;;;;21.56;83.64;100194.86;2806216;83;21024;-58
2021/08/23 09:12:04;;;;;;;3.60;3.15;;;;;;;21.72;84.50;100194.23;2799678;83;21110;-60
2021/08/23 09:16:08;;;;;;;3.98;3.58;;;;;;;21.75;83.38;100196.00;2800019;83;20976;-63
2021/08/23 09:20:50;;;;;;;4.72;2.95;;;;;;;21.81;83.24;100195.21;2799432;83;20960;-58
2021/08/23 09:24:53;;;;;;;2.27;2.02;;;;;;;21.88;81.67;100199.80;2798245;84;21031;-61
2021/08/23 09:33:46;;;;;;;5.08;3.47;;;;;;;21.91;83.04;100198.89;2799795;84;20993;-58
2021/08/23 09:37:49;;;;;;;4.42;3.12;;;;;;;21.88;81.51;100203.33;2799759;83;20956;-57
2021/08/23 09:41:51;;;;;;;7.87;3.58;;;;;;;21.74;82.17;100199.74;2799771;83;21043;-58
2021/08/23 09:46:22;;;;;;;5.50;2.65;;;;;;;21.80;82.66;100196.75;2799506;84;21043;-58
2021/08/23 09:50:22;;;;;;;7.20;2.90;;;;;;;22.08;81.65;100187.16;2797989;84;21016;-60
2021/08/23 09:54:23;;;;;;;3.50;3.20;;;;;;;22.28;79.97;100187.72;2799454;83;21063;-58
2021/08/23 09:58:34;;;;;;;3.75;3.40;;;;;;;22.42;80.63;100188.57;2799722;83;20976;-58
2021/08/23 10:02:49;;;;;;;4.15;3.37;;;;;;;22.55;79.22;100190.48;2799730;84;21070;-57
2021/08/23 10:06:54;;;;;;;4.62;2.50;;;;;;;22.64;78.95;100187.90;2799510;84;21083;-59
2021/08/23 10:10:57;;;;;;;5.30;3.10;;;;;;;22.80;79.54;100185.81;2799658;84;21007;-58
2021/08/23 10:15:00;;;;;;;2.42;2.22;;;;;;;22.99;78.56;100193.61;2799666;84;21000;-59
2021/08/23 10:19:06;;;;;;;2.87;2.17;;;;;;;23.00;76.17;100190.39;2799540;85;20964;-58
2021/08/23 10:23:15;;;;;;;3.37;2.42;;;;;;;23.00;76.45;100191.75;2799250;83;20992;-57
2021/08/23 10:27:25;;;;;;;4.80;3.12;;;;;;;23.00;76.70;100189.85;2799568;83;20984;-58
2021/08/23 10:31:33;;;;;;;3.87;2.65;;;;;;;22.92;76.14;100192.80;2799686;84;21066;-58
2021/08/23 10:35:52;;;;;;;2.08;1.87;;;;;;;22.74;77.00;100196.13;2799688;83;21019;-59
2021/08/23 10:40:02;;;;;;;4.85;2.85;;;;;;;22.70;77.64;100195.73;2799641;84;21087;-58
2021/08/23 10:44:06;;;;;;;2.80;2.58;;;;;;;22.77;78.08;100194.34;2800051;84;21051;-58
2021/08/23 10:48:18;;;;;;;6.95;3.02;;;;;;;22.78;77.61;100194.66;2799652;84;21024;-59
2021/08/23 10:52:25;;;;;;;3.85;3.35;;;;;;;22.80;78.07;100185.81;2799433;83;20980;-58
2021/08/23 10:56:40;;;;;;;2.60;2.40;;;;;;;22.80;79.17;100184.46;2796649;84;20985;-58
2021/08/23 11:00:45;;;;;;;3.93;2.97;;;;;;;22.74;77.91;100183.92;2799922;83;20984;-58
2021/08/23 11:05:09;;;;;;;3.58;2.87;;;;;;;22.78;79.26;100185.16;2799711;84;21294;-57
2021/08/23 11:09:12;;;;;;;3.83;2.77;;;;;;;22.90;79.19;100189.46;2799190;83;21047;-59
2021/08/23 11:13:19;;;;;;;3.52;2.85;;;;;;;23.02;77.92;100182.87;2799406;84;21284;-59
2021/08/23 11:17:31;;;;;;;3.98;2.87;;;;;;;23.09;77.63;100181.82;2799502;83;20989;-57
2021/08/23 11:21:33;;;;;;;2.83;2.62;;;;;;;23.25;76.50;100180.55;2799100;83;21901;-62
2021/08/23 11:25:46;;;;;;;4.65;3.92;;;;;;;23.18;76.11;100176.16;2799323;84;20988;-57
2021/08/23 11:29:59;;;;;;;4.25;2.98;;;;;;;22.99;75.51;100175.98;2799422;83;21027;-57
2021/08/23 11:34:04;;;;;;;3.02;2.72;;;;;;;22.85;76.98;100177.88;2799297;83;21078;-58
2021/08/23 11:38:53;;;;;;;4.45;3.40;;;;;;;22.95;76.58;100180.16;2799712;84;21004;-58
2021/08/23 11:43:01;;;;;;;3.08;2.85;;;;;;;23.03;76.89;100188.07;2799688;85;21032;-57
2021/08/23 11:47:08;;;;;;;3.95;3.10;;;;;;;23.17;76.85;100178.02;2799654;83;21039;-61
2021/08/23 11:51:09;;;;;;;5.92;4.08;;;;;;;23.37;75.51;100172.59;2787280;85;20960;-58
2021/08/23 11:55:41;;;;;;;5.37;4.05;;;;;;;23.56;75.09;100178.67;2799533;84;21039;-58
2021/08/23 12:00:07;;;;;;;4.28;3.47;;;;;;;23.69;75.91;100170.48;2799613;85;20980;-57
2021/08/23 12:04:10;;;;;;;4.22;3.37;;;;;;;23.72;74.12;100166.52;2799543;84;21004;-58
2021/08/23 12:08:27;;;;;;;4.35;2.72;;;;;;;23.94;73.84;100171.09;2809428;82;21039;-59
2021/08/23 12:12:30;;;;;;;3.62;2.60;;;;;;;24.06;74.46;100170.75;2806964;85;21020;-59
2021/08/23 12:16:36;;;;;;;3.02;2.75;;;;;;;24.21;75.18;100173.70;2806649;85;21039;-57
2021/08/23 12:21:34;;;;;;;4.25;3.67;;;;;;;24.31;73.62;100159.63;2806601;84;21007;-59
2021/08/23 12:25:37;;;;;;;4.08;2.40;;;;;;;24.38;73.83;100162.60;2806831;85;21003;-57
2021/08/23 12:29:45;;;;;;;2.80;2.50;;;;;;;24.51;71.65;100158.94;2806489;84;20991;-58
2021/08/23 12:33:47;;;;;;;2.75;2.25;;;;;;;24.88;72.46;100155.50;2807097;85;21075;-57
2021/08/23 12:37:50;;;;;;;2.87;2.17;;;;;;;25.26;71.32;100159.63;2806597;85;20999;-58
2021/08/23 12:42:00;;;;;;;2.87;2.02;;;;;;;25.50;69.39;100168.27;2806839;84;21039;-58
2021/08/23 12:46:03;;;;;;;2.27;1.65;;;;;;;25.64;67.14;100163.47;2807013;84;21012;-57
2021/08/23 12:50:08;;;;;;;3.67;2.50;;;;;;;25.59;67.85;100160.61;2806595;85;21036;-59
2021/08/23 12:54:12;;;;;;;2.50;2.25;;;;;;;25.53;68.55;100156.91;2844411;83;21004;-60
2021/08/23 12:58:32;;;;;;;2.45;1.90;;;;;;;25.50;66.37;100154.64;2854714;83;20996;-62
2021/08/23 13:02:34;;;;;;;1.10;1.00;;;;;;;25.66;66.95;100151.00;2854344;83;20968;-60
2021/08/23 13:06:36;;;;;;;2.72;2.40;;;;;;;25.68;67.75;100158.95;2854270;83;20997;-59
2021/08/23 13:11:37;;;;;;;5.55;3.10;;;;;;;25.53;67.80;100152.00;2844890;83;21037;-60
2021/08/23 13:15:39;;;;;;;3.27;2.98;;;;;;;25.23;69.07;100150.01;2845048;83;21052;-60
2021/08/23 13:19:41;;;;;;;3.52;3.22;;;;;;;25.14;71.35;100160.36;2845205;81;20982;-61
2021/08/23 13:23:44;;;;;;;3.67;3.15;;;;;;;25.00;70.37;100158.86;2845191;83;21061;-61
2021/08/23 13:27:46;;;;;;;3.35;2.65;;;;;;;24.90;70.39;100167.53;2810662;83;21007;-60
2021/08/23 13:31:47;;;;;;;4.03;3.35;;;;;;;24.84;69.84;100159.73;2838988;83;21027;-60
2021/08/23 13:36:01;;;;;;;2.90;2.65;;;;;;;24.79;71.96;100163.66;2820071;83;21007;-60
2021/08/23 13:40:06;;;;;;;3.42;2.47;;;;;;;24.51;72.03;100165.73;2798252;84;20972;-59
2021/08/23 13:44:37;;;;;;;3.17;2.60;;;;;;;24.45;73.31;100163.06;2798022;84;21027;-60
2021/08/23 13:48:39;;;;;;;2.37;2.02;;;;;;;24.32;73.90;100164.00;2798064;83;21054;-59
2021/08/23 13:52:41;;;;;;;2.33;2.12;;;;;;;24.25;73.84;100162.69;2809184;83;21003;-59
2021/08/23 13:57:20;;;;;;;3.02;2.33;;;;;;;24.24;74.30;100170.53;2833548;82;21011;-59
2021/08/23 14:01:25;;;;;;;1.37;1.27;;;;;;;24.30;74.22;100172.36;2811011;81;21048;-59
2021/08/23 14:05:27;;;;;;;1.25;1.02;;;;;;;23.84;75.01;100159.88;2838770;81;20991;-61
2021/08/23 14:09:29;;;;;;;1.67;1.37;;;;;;;23.84;75.01;100159.88;2799198;83;20960;-60
2021/08/23 14:13:31;;;;;;;1.15;0.93;;;;;;;23.85;75.87;100185.98;2834459;83;21040;-59
2021/08/23 14:17:43;;;;;;;2.33;1.77;;;;;;;23.63;76.40;100186.29;2847312;83;21008;-59
2021/08/23 14:21:47;;;;;;;3.00;1.57;;;;;;;23.53;77.93;100187.56;2847212;83;20983;-59
2021/08/23 14:25:55;;;;;;;1.70;1.55;;;;;;;23.51;77.16;100187.48;2839569;83;21019;-61
2021/08/23 14:29:57;;;;;;;1.62;1.52;;;;;;;23.50;77.66;100189.34;2847337;83;21051;-59
2021/08/23 14:33:59;;;;;;;2.33;2.02;;;;;;;23.30;77.27;100193.50;2825830;83;20960;-59
2021/08/23 14:38:01;;;;;;;3.75;2.70;;;;;;;23.10;78.02;100197.05;2843812;82;21039;-59
2021/08/23 14:42:04;;;;;;;3.65;3.35;;;;;;;23.00;79.25;100201.23;2799847;85;20999;-59
2021/08/23 14:46:47;;;;;;;3.87;3.42;;;;;;;23.02;79.61;100196.44;2842507;83;21083;-59
2021/08/23 14:50:51;;;;;;;5.28;4.05;;;;;;;23.05;79.17;100201.44;2788425;85;20992;-61
2021/08/23 14:55:08;;;;;;;4.78;4.22;;;;;;;23.04;79.39;100201.12;2799786;85;21003;-60
2021/08/23 14:59:10;;;;;;;4.67;4.10;;;;;;;23.10;80.39;100202.98;2841223;83;21003;-59
2021/08/23 15:03:12;;;;;;;4.05;3.75;;;;;;;23.06;79.49;100208.53;2846788;83;21015;-59
2021/08/23 15:07:21;;;;;;;5.17;4.42;;;;;;;22.83;79.72;100209.80;2824080;83;21091;-59
2021/08/23 15:11:23;;;;;;;6.65;5.67;;;;;;;22.68;80.00;100215.41;2798362;84;20972;-58
2021/08/23 15:15:31;;;;;;;5.58;4.47;;;;;;;22.47;80.10;100222.69;2798618;84;20952;-59
2021/08/23 15:19:34;;;;;;;4.72;4.35;;;;;;;22.28;81.32;100223.45;2801323;83;29225;-59
2021/08/23 15:23:36;;;;;;;5.28;4.78;;;;;;;22.06;82.10;100225.80;2846081;83;21011;-59
2021/08/23 15:27:39;;;;;;;6.22;5.67;;;;;;;21.89;83.17;100217.72;2845617;83;21016;-59
2021/08/23 15:31:41;;;;;;;6.37;5.33;;;;;;;21.69;83.31;100227.94;2826943;83;21015;-59
2021/08/23 15:36:26;;;;;;;9.60;5.17;;;;;;;21.51;84.13;100220.30;2798027;84;21000;-58
2021/08/23 15:40:28;;;;;;;7.03;5.40;;;;;;;21.37;84.84;100218.89;2798262;84;20992;-59
2021/08/23 15:44:39;;;;;;;5.97;5.37;;;;;;;21.23;85.20;100234.21;2798695;84;20925;-58
2021/08/23 15:48:43;;;;;;;7.70;5.78;;;;;;;21.13;86.16;100225.59;2798164;85;21011;-59
2021/08/23 15:53:34;;;;;;;5.55;5.10;;;;;;;21.04;86.39;100234.91;2798352;84;20988;-60
2021/08/23 15:57:42;;;;;;;8.90;5.92;;;;;;;20.93;86.41;100228.13;2798118;85;21043;-59
2021/08/23 16:02:00;;;;;;;6.62;4.87;;;;;;;20.78;86.86;100226.34;2797874;84;21052;-59
2021/08/23 16:06:02;;;;;;;7.03;3.85;;;;;;;20.66;87.43;100238.70;2797962;85;20970;-58
2021/08/23 16:10:09;;;;;;;4.42;4.03;;;;;;;20.51;88.28;100237.42;2798438;85;21153;-59
2021/08/23 16:14:23;;;;;;;4.30;4.00;;;;;;;20.42;88.86;100232.66;2834123;83;21035;-58
2021/08/23 16:18:25;;;;;;;3.80;3.60;;;;;;;20.29;89.26;100236.05;2824614;83;20980;-59
2021/08/23 16:22:27;;;;;;;4.80;4.40;;;;;;;20.23;89.99;100240.34;2767290;83;21466;-60
2021/08/23 16:26:53;;;;;;;5.50;5.00;;;;;;;20.18;90.42;100237.39;2799418;85;20999;-59
2021/08/23 16:30:55;;;;;;;6.33;5.67;;;;;;;20.07;90.50;100244.13;2799421;83;21016;-59
2021/08/23 16:35:23;;;;;;;5.90;5.08;;;;;;;19.99;90.87;100249.61;2799622;84;21000;-58
2021/08/23 16:39:27;;;;;;;6.45;4.92;;;;;;;19.93;90.91;100262.53;2799714;84;21062;-58
2021/08/23 16:43:29;;;;;;;5.22;4.72;;;;;;;19.90;90.87;100269.62;2799605;84;20984;-58
2021/08/23 16:47:31;;;;;;;6.03;4.92;;;;;;;19.83;90.84;100270.35;2799674;85;21012;-58
2021/08/23 16:51:38;;;;;;;7.25;4.42;;;;;;;19.76;91.25;100276.71;2799761;84;21010;-59
2021/08/23 16:55:50;;;;;;;4.58;4.17;;;;;;;19.72;91.56;100276.23;2799751;84;20992;-59
2021/08/23 16:59:52;;;;;;;4.17;3.83;;;;;;;19.65;91.94;100280.69;2799298;84;21031;-60
2021/08/23 17:04:19;;;;;;;3.95;3.62;;;;;;;19.61;92.00;100282.09;2799054;85;21013;-59
2021/08/23 17:08:26;;;;;;;4.17;3.77;;;;;;;19.57;92.43;100284.83;2811295;82;21130;-60
2021/08/23 17:12:33;;;;;;;4.12;2.77;;;;;;;19.54;92.04;100294.98;2860838;82;20992;-60
2021/08/23 17:17:14;;;;;;;;;;;;;;;19.50;92.72;100304.47;2879775;82;21064;-59
2021/08/23 17:21:17;;;;;;;4.25;2.85;;;;;;;19.41;93.19;100302.36;2832121;83;20119;-59
2021/08/23 17:25:19;;;;;;;2.83;2.62;;;;;;;19.32;93.38;100306.14;2855495;82;21067;-59
2021/08/23 17:30:04;;;;;;;2.90;2.67;;;;;;;19.25;93.55;100312.77;2866203;82;21063;-59
2021/08/23 17:34:06;;;;;;;4.25;3.25;;;;;;;19.18;94.05;100317.23;2879574;82;21087;-58
2021/08/23 17:38:09;;;;;;;2.80;2.60;;;;;;;19.10;95.01;100321.36;2879885;82;20968;-57
2021/08/23 17:42:22;;;;;;;3.98;2.90;;;;;;;19.04;95.61;100324.75;2879543;81;20952;-59
2021/08/23 17:46:23;;;;;;;2.72;2.47;;;;;;;18.96;95.98;100322.42;2879718;82;21028;-60
2021/08/23 17:50:28;;;;;;;2.52;2.33;;;;;;;18.91;96.16;100319.44;2879697;81;20988;-59
2021/08/23 17:54:34;;;;;;;2.47;1.73;;;;;;;18.89;96.55;100317.44;2880045;82;20964;-60
2021/08/23 17:58:37;;;;;;;3.67;3.17;;;;;;;18.89;96.56;100321.98;2879577;81;21040;-58
2021/08/23 18:02:41;;;;;;;2.87;2.67;;;;;;;18.88;96.57;100327.89;2878686;82;21067;-58
2021/08/23 18:06:43;;;;;;;3.33;3.02;;;;;;;18.89;96.54;100326.02;2879725;81;20996;-58
2021/08/23 18:10:45;;;;;;;2.85;2.65;;;;;;;18.92;96.71;100337.29;2873616;82;21072;-60
2021/08/23 18:14:51;;;;;;;3.00;2.67;;;;;;;18.93;96.63;100337.62;2869643;81;20992;-61
2021/08/23 18:19:13;;;;;;;;;;;;;;;18.98;96.63;100346.02;2872234;83;20985;-59
2021/08/23 18:23:17;;;;;;;4.30;3.90;;;;;;;19.00;96.88;100351.25;2869996;82;20092;-58
2021/08/23 18:27:31;;;;;;;6.33;4.30;;;;;;;19.01;97.02;100353.42;2869918;82;20973;-58
2021/08/23 18:31:33;;;;;;;5.20;4.70;;;;;;;19.01;97.30;100358.81;2869574;82;21021;-61
2021/08/23 18:35:37;;;;;;;4.85;4.45;;;;;;;19.03;97.70;100357.62;2869908;83;20984;-59
2021/08/23 18:39:54;;;;;;;5.45;4.92;;;;;;;19.05;97.78;100365.52;2870110;83;20953;-60
2021/08/23 18:43:56;;;;;;;6.60;5.92;;;;;;;19.03;97.90;100371.59;2806269;83;21062;-60
2021/08/23 18:47:57;;;;;;;9.18;8.05;;;;;;;18.99;98.17;100381.92;2796657;85;21011;-60
2021/08/23 18:52:03;;;;;;;9.10;8.20;;;;;;;18.95;98.56;100380.05;2796944;84;21022;-59
2021/08/23 18:56:06;;;;;;;12.53;10.80;;;;;;;18.91;98.94;100377.39;2796845;82;21070;-59
2021/08/23 19:04:51;;;;;;;13.28;11.85;;;;;;;18.81;99.39;100385.70;2797297;85;20991;-60
2021/08/23 19:08:54;;;;;;;12.95;11.45;;;;;;;18.79;99.50;100393.13;2796150;84;20963;-60
2021/08/23 19:13:01;;;;;;;13.75;12.05;;;;;;;18.77;99.60;100399.70;2773074;86;21004;-60
2021/08/23 19:17:03;;;;;;;14.23;12.45;;;;;;;18.73;99.94;100400.55;2798290;84;21050;-60
2021/08/23 19:21:05;;;;;;;14.05;12.53;;;;;;;18.68;100.00;100402.45;2804691;83;21030;-59
2021/08/23 19:25:09;;;;;;;13.35;12.05;;;;;;;18.64;100.00;100414.56;2797890;83;21684;-60
2021/08/23 19:29:11;;;;;;;11.83;10.50;;;;;;;18.59;100.00;100413.44;2788980;85;20975;-59
2021/08/23 19:33:17;;;;;;;13.85;11.18;;;;;;;18.55;100.00;100426.41;2773021;86;21059;-59
2021/08/23 19:37:22;;;;;;;12.47;11.15;;;;;;;18.50;100.00;100418.84;2797236;85;21011;-60